Holland, Virginia
Current Conditions -  °F | °C
As of 8:55 AM on Monday 24 Nov 2014 (Local Time) from KFKN Reporting Station
Clear Clear  
Wind Chill: 68°   Ceiling: Unl
Heat Index: 68°   Visibility: 10mi
Dew Point: 61°   Wind: 16mph
Humidity: 78%   Direction: 210°SSW
Pressure: 29.82"   Gusts: NA
Location:  36.6353°N, 76.8003°W
Report Text: KFKN 241355Z AUTO 21014KT 10SM CLR 20/16 A2982 RMK AO1
Loading
Personal Weather Stations






























Interactive Weather Map New forecast layout! Learn more

10-Day Weather Forecast

Advertisements
Track Severe Weather on mobile